This is the latest recevied weather packets stored in our database for station/object DL1EEM-13. If no packets are shown the sender has not sent any weather packets the latest 10 day(s).
| Time | Temp. | Humidity | Pressure | Rain* | Wind** | Luminosity | Snow |
|---|---|---|---|---|---|---|---|
| 1777387538 | 23.89° C | 19% | 1023.5 hPa | - | - | - | - |
| 1777386638 | 24.44° C | 20% | 1023.7 hPa | - | - | - | - |
| 1777385737 | 24.44° C | 19% | 1023.7 hPa | - | - | - | - |
| 1777384837 | 24.44° C | 18% | 1023.6 hPa | - | - | - | - |
| 1777383937 | 25° C | 19% | 1023.7 hPa | - | - | - | - |
| 1777383037 | 25° C | 18% | 1023.9 hPa | - | - | - | - |
| 1777382137 | 25° C | 19% | 1023.8 hPa | - | - | - | - |
| 1777381237 | 24.44° C | 19% | 1024 hPa | - | - | - | - |
| 1777380337 | 24.44° C | 19% | 1023.9 hPa | - | - | - | - |
| 1777379437 | 24.44° C | 19% | 1024.1 hPa | - | - | - | - |
| 1777378537 | 24.44° C | 18% | 1024.2 hPa | - | - | - | - |
| 1777377636 | 24.44° C | 18% | 1024.3 hPa | - | - | - | - |
| 1777376736 | 24.44° C | 19% | 1024.2 hPa | - | - | - | - |
| 1777375836 | 23.89° C | 19% | 1024.3 hPa | - | - | - | - |
| 1777374935 | 23.89° C | 18% | 1024.2 hPa | - | - | - | - |
| 1777374035 | 22.22° C | 20% | 1024.2 hPa | - | - | - | - |
| 1777373142 | 21.67° C | 21% | 1024.5 hPa | - | - | - | - |
| 1777372242 | 21.11° C | 22% | 1024.5 hPa | - | - | - | - |
| 1777371342 | 17.22° C | 27% | 1024.5 hPa | - | - | - | - |
| 1777370442 | 12.22° C | 36% | 1024.5 hPa | - | - | - | - |
| 1777369542 | 11.67° C | 38% | 1024.6 hPa | - | - | - | - |
| 1777368642 | 10.56° C | 39% | 1024.6 hPa | - | - | - | - |
| 1777367741 | 10.56° C | 40% | 1024.7 hPa | - | - | - | - |
| 1777366841 | 10° C | 42% | 1024.5 hPa | - | - | - | - |
| 1777365940 | 9.44° C | 42% | 1024.3 hPa | - | - | - | - |
* Rain since midnight (hover to see other rain measurements)
** Current wind speed in m/s (hover to see current wind gust speed)